Time;durP1;ratioP1;P1;durP2;ratioP2;P2;SDS_P1;SDS_P2;PMS_P1;PMS_P2;Temp;Humidity;BMP_temperature;BMP_pressure;BME280_temperature;BME280_humidity;BME280_pressure;Samples;Min_cycle;Max_cycle;Signal;HPM_P1;HPM_P2
2021/12/15 00:01:13;;;;;;;;;;;;;;;;;;5104943;28;19962;-79
2021/12/15 00:03:39;;;;;;;;;;;;;;;;;;5072225;28;19916;-81
2021/12/15 00:06:10;;;;;;;;;;;;;;;;;;5104583;28;19908;-82
2021/12/15 00:08:36;;;;;;;;;;;;;;;;;;5072203;28;19916;-85
2021/12/15 00:11:02;;;;;;;;;;;;;;;;;;5071848;28;20259;-80
2021/12/15 00:13:28;;;;;;;;;;;;;;;;;;5071438;28;20398;-77
2021/12/15 00:15:54;;;;;;;;;;;;;;;;;;5103681;28;19905;-78
2021/12/15 00:18:20;;;;;;;;;;;;;;;;;;5071729;28;19909;-80
2021/12/15 00:20:46;;;;;;;;;;;;;;;;;;5070341;28;19932;-73
2021/12/15 00:23:12;;;;;;;;;;;;;;;;;;5071489;28;20393;-80
2021/12/15 00:25:38;;;;;;;;;;;;;;;;;;5071577;28;19909;-79
2021/12/15 00:28:04;;;;;;;;;;;;;;;;;;5072010;28;19909;-79
2021/12/15 00:30:30;;;;;;;;;;;;;;;;;;5072560;28;19908;-85
2021/12/15 00:32:55;;;;;;;;;;;;;;;;;;5081473;28;20279;-87
2021/12/15 00:35:21;;;;;;;;;;;;;;;;;;5092844;28;19908;-78
2021/12/15 00:37:47;;;;;;;;;;;;;;;;;;5097552;28;19908;-86
2021/12/15 00:40:13;;;;;;;;;;;;;;;;;;5095978;28;20073;-83
2021/12/15 00:42:39;;;;;;;;;;;;;;;;;;5096493;28;19973;-86
2021/12/15 00:45:05;;;;;;;;;;;;;;;;;;5097155;28;20381;-86
2021/12/15 00:47:31;;;;;;;;;;;;;;;;;;5096361;28;20370;-88
2021/12/15 00:49:57;;;;;;;;;;;;;;;;;;5096777;28;20283;-79
2021/12/15 00:52:23;;;;;;;;;;;;;;;;;;5095059;28;19908;-75
2021/12/15 00:54:49;;;;;;;;;;;;;;;;;;5096433;28;19915;-84
2021/12/15 00:57:15;;;;;;;;;;;;;;;;;;5096588;28;19969;-81
2021/12/15 00:59:41;;;;;;;;;;;;;;;;;;5096254;28;19991;-86
2021/12/15 01:02:09;;;;;;;;;;;;;;;;;;5096498;28;19959;-86
2021/12/15 01:04:35;;;;;;;;;;;;;;;;;;5096500;28;19909;-84
2021/12/15 01:07:01;;;;;;;;;;;;;;;;;;5096317;28;20377;-86
2021/12/15 01:09:27;;;;;;;;;;;;;;;;;;5095244;28;19908;-86
2021/12/15 01:20:27;;;;;;;;;;;;;;;;;;5053709;28;19916;-82
2021/12/15 01:22:53;;;;;;;;;;;;;;;;;;5036844;28;19917;-83
2021/12/15 01:25:19;;;;;;;;;;;;;;;;;;5073151;28;20007;-87
2021/12/15 01:27:45;;;;;;;;;;;;;;;;;;5095183;28;20618;-73
2021/12/15 01:30:11;;;;;;;;;;;;;;;;;;5094472;28;19937;-82
2021/12/15 01:32:37;;;;;;;;;;;;;;;;;;5087616;28;19908;-80
2021/12/15 01:35:03;;;;;;;;;;;;;;;;;;5074402;28;19915;-81
2021/12/15 01:37:29;;;;;;;;;;;;;;;;;;5107834;28;19909;-81
2021/12/15 01:39:56;;;;;;;;;;;;;;;;;;5074168;28;19920;-77
2021/12/15 01:42:23;;;;;;;;;;;;;;;;;;5073888;28;19916;-80
2021/12/15 01:47:34;;;;;;;;;;;;;;;;;;5073804;28;19911;-82
2021/12/15 01:50:00;;;;;;;;;;;;;;;;;;5075246;28;19908;-89
2021/12/15 01:52:26;;;;;;;;;;;;;;;;;;5074223;28;19912;-80
2021/12/15 01:54:52;;;;;;;;;;;;;;;;;;5073630;28;19909;-78
2021/12/15 01:57:18;;;;;;;;;;;;;;;;;;5106113;28;20006;-82
2021/12/15 01:59:43;;;;;;;;;;;;;;;;;;5074007;28;19905;-90
2021/12/15 02:02:09;;;;;;;;;;;;;;;;;;5108482;28;19916;-91
2021/12/15 02:04:35;;;;;;;;;;;;;;;;;;5075607;28;20474;-90
2021/12/15 02:07:02;;;;;;;;;;;;;;;;;;5074669;28;20003;-85
2021/12/15 02:12:06;;;;;;;;;;;;;;;;;;5073632;28;19951;-77
2021/12/15 02:14:33;;;;;;;;;;;;;;;;;;5105717;28;20314;-77
2021/12/15 02:16:59;;;;;;;;;;;;;;;;;;5072615;28;19908;-79
2021/12/15 02:19:25;;;;;;;;;;;;;;;;;;5071860;28;19920;-80
2021/12/15 02:21:52;;;;;;;;;;;;;;;;;;5071659;28;19926;-76
2021/12/15 02:24:18;;;;;;;;;;;;;;;;;;5073005;28;19962;-76
2021/12/15 02:26:49;;;;;;;;;;;;;;;;;;5072949;28;19947;-76
2021/12/15 02:29:20;;;;;;;;;;;;;;;;;;5072849;28;19912;-75
2021/12/15 02:39:31;;;;;;;;;;;;;;;;;;5072468;28;20023;-78
2021/12/15 02:41:59;;;;;;;;;;;;;;;;;;5072396;28;20287;-78
2021/12/15 02:44:25;;;;;;;;;;;;;;;;;;5072861;28;20224;-82
2021/12/15 02:46:50;;;;;;;;;;;;;;;;;;5072827;28;20405;-82
2021/12/15 02:49:16;;;;;;;;;;;;;;;;;;5072781;28;19951;-75
2021/12/15 02:51:42;;;;;;;;;;;;;;;;;;5072734;28;19943;-82
2021/12/15 02:54:08;;;;;;;;;;;;;;;;;;5072831;28;19951;-78
2021/12/15 02:56:34;;;;;;;;;;;;;;;;;;5071244;28;19932;-76
2021/12/15 02:59:03;;;;;;;;;;;;;;;;;;5071752;28;19992;-77
2021/12/15 03:01:39;;;;;;;;;;;;;;;;;;5072063;28;19909;-78
2021/12/15 03:07:07;;;;;;;;;;;;;;;;;;5072501;28;19976;-80
2021/12/15 03:17:43;;;;;;;;;;;;;;;;;;5072224;28;20042;-81
2021/12/15 03:20:09;;;;;;;;;;;;;;;;;;5072442;28;19944;-81
2021/12/15 03:22:35;;;;;;;;;;;;;;;;;;5072185;28;20028;-82
2021/12/15 03:25:01;;;;;;;;;;;;;;;;;;5072224;28;19915;-78
2021/12/15 03:33:17;;;;;;;;;;;;;;;;;;5071989;28;19909;-80
2021/12/15 03:36:02;;;;;;;;;;;;;;;;;;5071797;28;19911;-78
2021/12/15 03:38:28;;;;;;;;;;;;;;;;;;5071731;28;20395;-77
2021/12/15 03:40:54;;;;;;;;;;;;;;;;;;5071809;28;20383;-77
2021/12/15 03:43:21;;;;;;;;;;;;;;;;;;5071883;28;19970;-77
2021/12/15 03:45:47;;;;;;;;;;;;;;;;;;5072009;28;19985;-76
2021/12/15 03:48:13;;;;;;;;;;;;;;;;;;5071886;28;20548;-76
2021/12/15 03:50:39;;;;;;;;;;;;;;;;;;5071825;28;19908;-76
2021/12/15 03:53:05;;;;;;;;;;;;;;;;;;5071623;28;19995;-75
2021/12/15 03:55:31;;;;;;;;;;;;;;;;;;5071630;28;19916;-76
2021/12/15 03:57:57;;;;;;;;;;;;;;;;;;5071688;28;19954;-76
2021/12/15 04:00:23;;;;;;;;;;;;;;;;;;5071703;28;19912;-74
2021/12/15 04:02:49;;;;;;;;;;;;;;;;;;5071585;28;19956;-77
2021/12/15 04:05:15;;;;;;;;;;;;;;;;;;5071596;28;19916;-77
2021/12/15 04:07:41;;;;;;;;;;;;;;;;;;5071588;28;19905;-78
2021/12/15 04:10:07;;;;;;;;;;;;;;;;;;5104211;28;19908;-78
2021/12/15 04:12:33;;;;;;;;;;;;;;;;;;5075603;28;19915;-75
2021/12/15 04:15:19;;;;;;;;;;;;;;;;;;5075959;28;19909;-81
2021/12/15 04:17:44;;;;;;;;;;;;;;;;;;5088861;28;20040;-84
2021/12/15 04:20:10;;;;;;;;;;;;;;;;;;5095878;28;20581;-85
2021/12/15 04:22:36;;;;;;;;;;;;;;;;;;5096270;28;20438;-83
2021/12/15 04:25:02;;;;;;;;;;;;;;;;;;5096213;28;19908;-83
2021/12/15 04:27:28;;;;;;;;;;;;;;;;;;5094842;28;19908;-84
2021/12/15 04:29:54;;;;;;;;;;;;;;;;;;5096103;28;19934;-83
2021/12/15 04:32:20;;;;;;;;;;;;;;;;;;5095753;28;19908;-81
2021/12/15 04:34:46;;;;;;;;;;;;;;;;;;5095772;28;20294;-81
2021/12/15 04:37:12;;;;;;;;;;;;;;;;;;5095458;28;19917;-78
2021/12/15 04:39:38;;;;;;;;;;;;;;;;;;5095226;28;19920;-81
2021/12/15 04:42:05;;;;;;;;;;;;;;;;;;5095311;28;19915;-77
2021/12/15 04:44:31;;;;;;;;;;;;;;;;;;5095191;28;19920;-76
2021/12/15 04:47:03;;;;;;;;;;;;;;;;;;5093998;28;20359;-76
2021/12/15 04:49:29;;;;;;;;;;;;;;;;;;5094986;28;19916;-75
2021/12/15 04:51:55;;;;;;;;;;;;;;;;;;5095313;28;19908;-76
2021/12/15 04:54:21;;;;;;;;;;;;;;;;;;5093750;28;20410;-76
2021/12/15 04:56:47;;;;;;;;;;;;;;;;;;5095368;28;20401;-76
2021/12/15 04:59:13;;;;;;;;;;;;;;;;;;5095251;28;19923;-76
2021/12/15 05:01:39;;;;;;;;;;;;;;;;;;5095003;28;20023;-77
2021/12/15 05:04:05;;;;;;;;;;;;;;;;;;5094891;28;19942;-71
2021/12/15 05:06:31;;;;;;;;;;;;;;;;;;5094849;28;19912;-71
2021/12/15 05:08:57;;;;;;;;;;;;;;;;;;5093356;28;20112;-76
2021/12/15 05:11:22;;;;;;;;;;;;;;;;;;5094856;28;19915;-81
2021/12/15 05:13:48;;;;;;;;;;;;;;;;;;5095051;28;20423;-63
2021/12/15 05:16:16;;;;;;;;;;;;;;;;;;5094839;28;20003;-80
2021/12/15 05:18:43;;;;;;;;;;;;;;;;;;5094845;28;19908;-74
2021/12/15 05:21:10;;;;;;;;;;;;;;;;;;5093275;28;20259;-75
2021/12/15 05:23:36;;;;;;;;;;;;;;;;;;5094377;28;19961;-71
2021/12/15 05:26:02;;;;;;;;;;;;;;;;;;5094385;28;19912;-74
2021/12/15 05:28:28;;;;;;;;;;;;;;;;;;5094233;28;20310;-70
2021/12/15 05:30:54;;;;;;;;;;;;;;;;;;5094780;28;19955;-73
2021/12/15 05:33:20;;;;;;;;;;;;;;;;;;5094922;28;19915;-78
2021/12/15 05:35:46;;;;;;;;;;;;;;;;;;5094112;28;19912;-69
2021/12/15 05:38:12;;;;;;;;;;;;;;;;;;5092818;28;20508;-67
2021/12/15 05:40:38;;;;;;;;;;;;;;;;;;5094189;28;19916;-65
2021/12/15 05:43:04;;;;;;;;;;;;;;;;;;5094026;28;19916;-62
2021/12/15 05:45:30;;;;;;;;;;;;;;;;;;5094021;28;19915;-65
2021/12/15 05:47:56;;;;;;;;;;;;;;;;;;5094094;28;19923;-74
2021/12/15 05:50:22;;;;;;;;;;;;;;;;;;5092613;28;19912;-69
2021/12/15 05:52:48;;;;;;;;;;;;;;;;;;5094024;28;19954;-67
2021/12/15 05:55:14;;;;;;;;;;;;;;;;;;5093920;28;19947;-69
2021/12/15 05:57:40;;;;;;;;;;;;;;;;;;5093854;28;19952;-70
2021/12/15 06:00:06;;;;;;;;;;;;;;;;;;5093732;28;19951;-77
2021/12/15 06:02:31;;;;;;;;;;;;;;;;;;5093579;28;19943;-77
2021/12/15 06:04:57;;;;;;;;;;;;;;;;;;5094109;28;19935;-66
2021/12/15 06:07:23;;;;;;;;;;;;;;;;;;5093799;28;20279;-77
2021/12/15 06:09:49;;;;;;;;;;;;;;;;;;5093239;28;19911;-63
2021/12/15 06:12:15;;;;;;;;;;;;;;;;;;5093690;28;19909;-68
2021/12/15 06:14:43;;;;;;;;;;;;;;;;;;5093504;28;19905;-79
2021/12/15 06:17:08;;;;;;;;;;;;;;;;;;5084482;28;19913;-79
2021/12/15 06:19:34;;;;;;;;;;;;;;;;;;5072847;28;20047;-79
2021/12/15 06:22:00;;;;;;;;;;;;;;;;;;5071606;28;19952;-75
2021/12/15 06:24:26;;;;;;;;;;;;;;;;;;5073092;28;19920;-74
2021/12/15 06:26:52;;;;;;;;;;;;;;;;;;5071637;28;19995;-73
2021/12/15 06:29:18;;;;;;;;;;;;;;;;;;5072980;28;19935;-77
2021/12/15 06:31:44;;;;;;;;;;;;;;;;;;5072365;28;20351;-84
2021/12/15 06:34:10;;;;;;;;;;;;;;;;;;5092995;28;19908;-83
2021/12/15 06:36:36;;;;;;;;;;;;;;;;;;5094510;28;19915;-70
2021/12/15 06:39:02;;;;;;;;;;;;;;;;;;5094126;28;20003;-70
2021/12/15 06:41:28;;;;;;;;;;;;;;;;;;5094246;28;20430;-87
2021/12/15 06:43:58;;;;;;;;;;;;;;;;;;5093909;28;19923;-87
2021/12/15 07:00:01;;;;;;;;;;;;;;;;;;5092922;28;20040;-75
2021/12/15 07:02:27;;;;;;;;;;;;;;;;;;5092573;28;20525;-75
2021/12/15 07:04:53;;;;;;;;;;;;;;;;;;5092625;28;20405;-65
2021/12/15 07:07:19;;;;;;;;;;;;;;;;;;5092549;28;19912;-65
2021/12/15 07:09:45;;;;;;;;;;;;;;;;;;5092362;28;19911;-73
2021/12/15 07:12:10;;;;;;;;;;;;;;;;;;5092252;28;19934;-76
2021/12/15 07:14:36;;;;;;;;;;;;;;;;;;5092089;28;19904;-75
2021/12/15 07:17:08;;;;;;;;;;;;;;;;;;5092317;28;20307;-75
2021/12/15 07:19:51;;;;;;;;;;;;;;;;;;5090869;28;19909;-71
2021/12/15 07:22:31;;;;;;;;;;;;;;;;;;5092052;28;20473;-67
2021/12/15 07:24:57;;;;;;;;;;;;;;;;;;5092242;28;20259;-76
2021/12/15 07:27:23;;;;;;;;;;;;;;;;;;5092318;28;19915;-76
2021/12/15 07:29:49;;;;;;;;;;;;;;;;;;5092139;28;19966;-68
2021/12/15 07:32:15;;;;;;;;;;;;;;;;;;5088060;28;19908;-73
2021/12/15 07:34:41;;;;;;;;;;;;;;;;;;5071970;28;20367;-74
2021/12/15 07:37:07;;;;;;;;;;;;;;;;;;5071857;28;19908;-72
2021/12/15 07:39:35;;;;;;;;;;;;;;;;;;5074750;28;19919;-81
2021/12/15 07:42:07;;;;;;;;;;;;;;;;;;5081294;28;20496;-82
2021/12/15 07:44:33;;;;;;;;;;;;;;;;;;5092896;28;20290;-67
2021/12/15 07:46:59;;;;;;;;;;;;;;;;;;5080474;28;19908;-71
2021/12/15 07:49:25;;;;;;;;;;;;;;;;;;5078207;28;19915;-74
2021/12/15 07:51:59;;;;;;;;;;;;;;;;;;5078004;28;20015;-77
2021/12/15 07:54:25;;;;;;;;;;;;;;;;;;5077990;28;19961;-73
2021/12/15 07:56:50;;;;;;;;;;;;;;;;;;5078122;28;19944;-81
2021/12/15 07:59:17;;;;;;;;;;;;;;;;;;5076655;28;19948;-67
2021/12/15 08:01:43;;;;;;;;;;;;;;;;;;5077888;28;19916;-77
2021/12/15 08:04:09;;;;;;;;;;;;;;;;;;5091228;28;20417;-82
2021/12/15 08:06:35;;;;;;;;;;;;;;;;;;5077547;28;20469;-76
2021/12/15 08:09:00;;;;;;;;;;;;;;;;;;5077454;28;20481;-79
2021/12/15 08:11:26;;;;;;;;;;;;;;;;;;5078913;28;19909;-77
2021/12/15 08:13:52;;;;;;;;;;;;;;;;;;5077787;28;19909;-77
2021/12/15 08:16:19;;;;;;;;;;;;;;;;;;5076317;28;19908;-64
2021/12/15 08:18:45;;;;;;;;;;;;;;;;;;5076582;28;20411;-73
2021/12/15 08:21:11;;;;;;;;;;;;;;;;;;5078199;28;19950;-81
2021/12/15 08:23:37;;;;;;;;;;;;;;;;;;5098289;28;19974;-78
2021/12/15 08:26:03;;;;;;;;;;;;;;;;;;5098323;28;19951;-76
2021/12/15 08:28:29;;;;;;;;;;;;;;;;;;5098467;28;19962;-76
2021/12/15 08:30:55;;;;;;;;;;;;;;;;;;5097208;28;19908;-78
2021/12/15 08:33:21;;;;;;;;;;;;;;;;;;5085214;28;19908;-79
2021/12/15 08:35:47;;;;;;;;;;;;;;;;;;5078031;28;20119;-76
2021/12/15 08:38:12;;;;;;;;;;;;;;;;;;5093491;28;19920;-77
2021/12/15 08:40:38;;;;;;;;;;;;;;;;;;5094073;28;19909;-76
2021/12/15 08:43:06;;;;;;;;;;;;;;;;;;5078022;28;20012;-78
2021/12/15 08:45:32;;;;;;;;;;;;;;;;;;5077918;28;19908;-74
2021/12/15 08:47:58;;;;;;;;;;;;;;;;;;5078176;28;20331;-77
2021/12/15 08:50:26;;;;;;;;;;;;;;;;;;5078046;28;19915;-80
2021/12/15 08:52:52;;;;;;;;;;;;;;;;;;5077770;28;20403;-77
2021/12/15 08:55:18;;;;;;;;;;;;;;;;;;5078341;28;20011;-78
2021/12/15 08:57:52;;;;;;;;;;;;;;;;;;5074157;28;20002;-79
2021/12/15 09:00:18;;;;;;;;;;;;;;;;;;5074641;28;20499;-81
2021/12/15 09:02:44;;;;;;;;;;;;;;;;;;5074756;28;19916;-79
2021/12/15 09:05:10;;;;;;;;;;;;;;;;;;5090197;28;19909;-78
2021/12/15 09:07:35;;;;;;;;;;;;;;;;;;5074317;28;20232;-72
2021/12/15 09:10:01;;;;;;;;;;;;;;;;;;5074358;28;20050;-77
2021/12/15 09:12:27;;;;;;;;;;;;;;;;;;5074330;28;19980;-77
2021/12/15 09:14:53;;;;;;;;;;;;;;;;;;5074245;28;20537;-77
2021/12/15 09:17:20;;;;;;;;;;;;;;;;;;5074221;28;20401;-78
2021/12/15 09:19:46;;;;;;;;;;;;;;;;;;5074079;28;19909;-68
2021/12/15 09:22:12;;;;;;;;;;;;;;;;;;5074068;28;19909;-71
2021/12/15 09:24:38;;;;;;;;;;;;;;;;;;5089771;28;19923;-76
2021/12/15 09:27:03;;;;;;;;;;;;;;;;;;5074351;28;19908;-73
2021/12/15 09:29:29;;;;;;;;;;;;;;;;;;5074013;28;20011;-79
2021/12/15 09:31:55;;;;;;;;;;;;;;;;;;5073977;28;19998;-79
2021/12/15 09:34:21;;;;;;;;;;;;;;;;;;5106569;28;20319;-76
2021/12/15 09:36:47;;;;;;;;;;;;;;;;;;5074330;28;19915;-74
2021/12/15 09:39:13;;;;;;;;;;;;;;;;;;5106260;28;19936;-75
2021/12/15 09:41:39;;;;;;;;;;;;;;;;;;5074011;28;19908;-79
2021/12/15 09:44:10;;;;;;;;;;;;;;;;;;5074009;28;19916;-79
2021/12/15 09:46:51;;;;;;;;;;;;;;;;;;5074661;28;20395;-82
2021/12/15 10:02:00;;;;;;;;;;;;;;;;;;5094237;28;20011;-78
2021/12/15 10:03:51;;;;;;;;;;;;;;;;;;5093431;28;19923;-64
2021/12/15 10:19:25;;;;;;;;;;;;;;;;;;5093194;28;20382;-80
2021/12/15 10:21:51;;;;;;;;;;;;;;;;;;5093126;28;19904;-77
2021/12/15 10:24:17;;;;;;;;;;;;;;;;;;5092978;28;19918;-76
2021/12/15 10:26:43;;;;;;;;;;;;;;;;;;5092051;28;19919;-67
2021/12/15 10:29:09;;;;;;;;;;;;;;;;;;5092475;28;19908;-75
2021/12/15 10:31:35;;;;;;;;;;;;;;;;;;5092166;28;20248;-78
2021/12/15 10:34:03;;;;;;;;;;;;;;;;;;5092866;28;20378;-78
2021/12/15 10:36:29;;;;;;;;;;;;;;;;;;5092964;28;19908;-78
2021/12/15 10:38:55;;;;;;;;;;;;;;;;;;5092686;28;19924;-77
2021/12/15 10:41:21;;;;;;;;;;;;;;;;;;5092897;28;19908;-65
2021/12/15 10:43:47;;;;;;;;;;;;;;;;;;5092493;28;19923;-76
2021/12/15 10:46:13;;;;;;;;;;;;;;;;;;5092728;28;19960;-72
2021/12/15 10:48:39;;;;;;;;;;;;;;;;;;5092941;28;20002;-66
2021/12/15 10:51:05;;;;;;;;;;;;;;;;;;5092920;28;19912;-72
2021/12/15 10:53:31;;;;;;;;;;;;;;;;;;5092884;28;19912;-77
2021/12/15 10:55:57;;;;;;;;;;;;;;;;;;5092882;28;19991;-79
2021/12/15 10:58:23;;;;;;;;;;;;;;;;;;5091491;28;19947;-78
2021/12/15 11:00:49;;;;;;;;;;;;;;;;;;5091516;28;19951;-76
2021/12/15 11:03:17;;;;;;;;;;;;;;;;;;5091283;28;20374;-79
2021/12/15 11:05:43;;;;;;;;;;;;;;;;;;5092740;28;19916;-74
2021/12/15 11:08:09;;;;;;;;;;;;;;;;;;5092586;28;19912;-76
2021/12/15 11:10:35;;;;;;;;;;;;;;;;;;5092563;28;19965;-78
2021/12/15 11:13:01;;;;;;;;;;;;;;;;;;5092329;28;19934;-76
2021/12/15 11:15:27;;;;;;;;;;;;;;;;;;5092239;28;19905;-78
2021/12/15 11:17:53;;;;;;;;;;;;;;;;;;5092025;28;19960;-78
2021/12/15 11:20:19;;;;;;;;;;;;;;;;;;5091948;28;20002;-78
2021/12/15 11:22:45;;;;;;;;;;;;;;;;;;5092122;28;20016;-76
2021/12/15 11:25:11;;;;;;;;;;;;;;;;;;5092323;28;19908;-78
2021/12/15 11:27:37;;;;;;;;;;;;;;;;;;5092430;28;19915;-77
2021/12/15 11:30:03;;;;;;;;;;;;;;;;;;5092435;28;19908;-77
2021/12/15 11:32:29;;;;;;;;;;;;;;;;;;5092141;28;20280;-75
2021/12/15 11:34:55;;;;;;;;;;;;;;;;;;5092173;28;20376;-78
2021/12/15 11:37:21;;;;;;;;;;;;;;;;;;5092294;28;19908;-79
2021/12/15 11:39:47;;;;;;;;;;;;;;;;;;5092496;28;20398;-77
2021/12/15 11:42:13;;;;;;;;;;;;;;;;;;5092219;28;19908;-75
2021/12/15 11:44:39;;;;;;;;;;;;;;;;;;5092232;28;19912;-78
2021/12/15 11:47:08;;;;;;;;;;;;;;;;;;5092294;28;19908;-75
2021/12/15 11:49:34;;;;;;;;;;;;;;;;;;5092240;28;19908;-78
2021/12/15 11:52:00;;;;;;;;;;;;;;;;;;5092028;28;20241;-72
2021/12/15 11:54:26;;;;;;;;;;;;;;;;;;5081101;28;20057;-73
2021/12/15 11:56:52;;;;;;;;;;;;;;;;;;5072010;28;19967;-77
2021/12/15 11:59:18;;;;;;;;;;;;;;;;;;5071858;28;20455;-68
2021/12/15 12:01:44;;;;;;;;;;;;;;;;;;5071568;28;20280;-76
2021/12/15 12:04:10;;;;;;;;;;;;;;;;;;5071763;28;20008;-77
2021/12/15 12:06:36;;;;;;;;;;;;;;;;;;5071723;28;20049;-78
2021/12/15 12:09:02;;;;;;;;;;;;;;;;;;5071528;28;19912;-76
2021/12/15 12:11:29;;;;;;;;;;;;;;;;;;5071577;28;19975;-78
2021/12/15 12:13:59;;;;;;;;;;;;;;;;;;5071814;28;19952;-79
2021/12/15 12:16:25;;;;;;;;;;;;;;;;;;5071681;28;19908;-74
2021/12/15 12:18:52;;;;;;;;;;;;;;;;;;5071615;28;19951;-78
2021/12/15 12:21:18;;;;;;;;;;;;;;;;;;5071545;28;20355;-79
2021/12/15 12:23:49;;;;;;;;;;;;;;;;;;5071453;28;19917;-78
2021/12/15 12:26:16;;;;;;;;;;;;;;;;;;5071776;28;20355;-78
2021/12/15 12:28:42;;;;;;;;;;;;;;;;;;5087124;28;19909;-76
2021/12/15 12:31:07;;;;;;;;;;;;;;;;;;5071563;28;19915;-78
2021/12/15 12:33:33;;;;;;;;;;;;;;;;;;5075188;28;19908;-72
2021/12/15 12:36:01;;;;;;;;;;;;;;;;;;5075414;28;19908;-78
2021/12/15 12:38:27;;;;;;;;;;;;;;;;;;5074981;28;20283;-78
2021/12/15 12:40:53;;;;;;;;;;;;;;;;;;5075377;28;19908;-78
2021/12/15 12:43:19;;;;;;;;;;;;;;;;;;5075102;28;19912;-79
2021/12/15 12:45:45;;;;;;;;;;;;;;;;;;5075178;28;20417;-76
2021/12/15 12:48:27;;;;;;;;;;;;;;;;;;5075056;28;20003;-77
2021/12/15 12:57:53;;;;;;;;;;;;;;;;;;5074902;28;19909;-78
2021/12/15 12:59:25;;;;;;;;;;;;;;;;;;5095048;28;19915;-77
2021/12/15 13:01:50;;;;;;;;;;;;;;;;;;5095348;28;20313;-78
2021/12/15 13:04:16;;;;;;;;;;;;;;;;;;5094994;28;19916;-78
2021/12/15 13:06:42;;;;;;;;;;;;;;;;;;5094808;28;20018;-72
2021/12/15 13:09:10;;;;;;;;;;;;;;;;;;5094833;28;19995;-80
2021/12/15 13:11:38;;;;;;;;;;;;;;;;;;5094822;28;19908;-79
2021/12/15 13:14:04;;;;;;;;;;;;;;;;;;5095099;28;19908;-76
2021/12/15 13:16:30;;;;;;;;;;;;;;;;;;5094684;28;19908;-78
2021/12/15 13:18:56;;;;;;;;;;;;;;;;;;5094584;28;19908;-75
2021/12/15 13:21:22;;;;;;;;;;;;;;;;;;5094535;28;20013;-75
2021/12/15 13:23:53;;;;;;;;;;;;;;;;;;5094518;28;19942;-78
2021/12/15 13:29:03;;;;;;;;;;;;;;;;;;5094337;28;19911;-78
2021/12/15 13:31:29;;;;;;;;;;;;;;;;;;5094433;28;19908;-79
2021/12/15 13:33:57;;;;;;;;;;;;;;;;;;5094412;28;20263;-78
2021/12/15 13:36:23;;;;;;;;;;;;;;;;;;5094546;28;19908;-79
2021/12/15 13:38:49;;;;;;;;;;;;;;;;;;5094208;28;19920;-79
2021/12/15 13:41:30;;;;;;;;;;;;;;;;;;5092827;28;20379;-75
2021/12/15 13:43:56;;;;;;;;;;;;;;;;;;5092533;28;20004;-78
2021/12/15 13:46:22;;;;;;;;;;;;;;;;;;5094138;28;19940;-75
2021/12/15 13:48:48;;;;;;;;;;;;;;;;;;5094185;28;19961;-79
2021/12/15 13:51:14;;;;;;;;;;;;;;;;;;5094014;28;19913;-78
2021/12/15 13:53:40;;;;;;;;;;;;;;;;;;5094056;28;20317;-78
2021/12/15 13:56:06;;;;;;;;;;;;;;;;;;5093784;28;19909;-79
2021/12/15 13:58:32;;;;;;;;;;;;;;;;;;5093730;28;19937;-79
2021/12/15 14:00:58;;;;;;;;;;;;;;;;;;5093844;28;19915;-78
2021/12/15 14:03:24;;;;;;;;;;;;;;;;;;5093860;28;20074;-78
2021/12/15 14:05:50;;;;;;;;;;;;;;;;;;5092408;28;19909;-77
2021/12/15 14:08:16;;;;;;;;;;;;;;;;;;5093561;28;19939;-77
2021/12/15 14:10:42;;;;;;;;;;;;;;;;;;5092255;28;20001;-65
2021/12/15 14:13:08;;;;;;;;;;;;;;;;;;5093598;28;19985;-70
2021/12/15 14:15:34;;;;;;;;;;;;;;;;;;5093655;28;19934;-72
2021/12/15 14:18:00;;;;;;;;;;;;;;;;;;5093520;28;19908;-78
2021/12/15 14:20:26;;;;;;;;;;;;;;;;;;5093494;28;19914;-77
2021/12/15 14:22:52;;;;;;;;;;;;;;;;;;5085591;28;19916;-78
2021/12/15 14:25:17;;;;;;;;;;;;;;;;;;5080026;28;20014;-77
2021/12/15 14:27:43;;;;;;;;;;;;;;;;;;5083246;28;20399;-76
2021/12/15 14:30:09;;;;;;;;;;;;;;;;;;5090434;28;20002;-78
2021/12/15 14:32:35;;;;;;;;;;;;;;;;;;5073073;28;20019;-79
2021/12/15 14:35:01;;;;;;;;;;;;;;;;;;5072735;28;20360;-79
2021/12/15 14:37:27;;;;;;;;;;;;;;;;;;5104963;28;19957;-75
2021/12/15 14:39:56;;;;;;;;;;;;;;;;;;5112255;27;19969;-66
2021/12/15 14:42:22;;;;;;;;;;;;;;;;;;5093117;28;20283;-70
2021/12/15 14:44:48;;;;;;;;;;;;;;;;;;5093000;28;19913;-72
2021/12/15 14:47:14;;;;;;;;;;;;;;;;;;5092994;28;20028;-78
2021/12/15 14:49:40;;;;;;;;;;;;;;;;;;5082825;28;19909;-75
2021/12/15 14:52:06;;;;;;;;;;;;;;;;;;5072575;28;19908;-77
2021/12/15 14:54:32;;;;;;;;;;;;;;;;;;5070373;28;19913;-77
2021/12/15 14:56:58;;;;;;;;;;;;;;;;;;5072522;28;19915;-78
2021/12/15 14:59:24;;;;;;;;;;;;;;;;;;5072326;28;19908;-74
2021/12/15 15:01:50;;;;;;;;;;;;;;;;;;5075609;28;19908;-75
2021/12/15 15:04:16;;;;;;;;;;;;;;;;;;5112740;28;19916;-75
2021/12/15 15:06:42;;;;;;;;;;;;;;;;;;5112869;27;20003;-74
2021/12/15 15:09:08;;;;;;;;;;;;;;;;;;5113085;28;20384;-82
2021/12/15 15:11:34;;;;;;;;;;;;;;;;;;5112916;28;19912;-77
2021/12/15 15:14:00;;;;;;;;;;;;;;;;;;5112799;28;19908;-78
2021/12/15 15:16:33;;;;;;;;;;;;;;;;;;5112661;28;20278;-75
2021/12/15 15:19:05;;;;;;;;;;;;;;;;;;5112730;28;19951;-74
2021/12/15 15:21:31;;;;;;;;;;;;;;;;;;5111432;28;19916;-82
2021/12/15 15:23:58;;;;;;;;;;;;;;;;;;5112824;28;19922;-73
2021/12/15 15:26:27;;;;;;;;;;;;;;;;;;5089412;28;19919;-76
2021/12/15 15:28:53;;;;;;;;;;;;;;;;;;5071955;28;19944;-79
2021/12/15 15:31:19;;;;;;;;;;;;;;;;;;5104549;28;19909;-77
2021/12/15 15:33:45;;;;;;;;;;;;;;;;;;5071860;28;19909;-75
2021/12/15 15:36:13;;;;;;;;;;;;;;;;;;5072146;28;19998;-76
2021/12/15 15:38:39;;;;;;;;;;;;;;;;;;5071620;28;19920;-78
2021/12/15 15:41:05;;;;;;;;;;;;;;;;;;5104457;28;19908;-76
2021/12/15 15:43:38;;;;;;;;;;;;;;;;;;5071866;28;19916;-80
2021/12/15 15:46:04;;;;;;;;;;;;;;;;;;5071811;28;19990;-75
2021/12/15 15:48:30;;;;;;;;;;;;;;;;;;5072083;28;20481;-78
2021/12/15 15:50:56;;;;;;;;;;;;;;;;;;5071878;28;19909;-79
2021/12/15 15:53:22;;;;;;;;;;;;;;;;;;5071731;28;19980;-81
2021/12/15 15:55:48;;;;;;;;;;;;;;;;;;5071873;28;19973;-81
2021/12/15 15:58:14;;;;;;;;;;;;;;;;;;5071935;28;19909;-69
2021/12/15 16:00:40;;;;;;;;;;;;;;;;;;5071813;28;19916;-78
2021/12/15 16:03:06;;;;;;;;;;;;;;;;;;5071581;28;19912;-76
2021/12/15 16:05:31;;;;;;;;;;;;;;;;;;5072223;28;20268;-75
2021/12/15 16:07:57;;;;;;;;;;;;;;;;;;5075589;28;20355;-76
2021/12/15 16:10:23;;;;;;;;;;;;;;;;;;5075582;28;19908;-73
2021/12/15 16:12:49;;;;;;;;;;;;;;;;;;5108240;28;20349;-79
2021/12/15 16:15:15;;;;;;;;;;;;;;;;;;5075713;28;19953;-78
2021/12/15 16:17:53;;;;;;;;;;;;;;;;;;5108340;28;20311;-75
2021/12/15 16:20:23;;;;;;;;;;;;;;;;;;5107996;28;19913;-76
2021/12/15 16:23:00;;;;;;;;;;;;;;;;;;5107253;27;20390;-73
2021/12/15 16:25:26;;;;;;;;;;;;;;;;;;5077695;28;19908;-81
2021/12/15 16:27:52;;;;;;;;;;;;;;;;;;5095590;28;19994;-80
2021/12/15 16:30:18;;;;;;;;;;;;;;;;;;5095742;28;19908;-78
2021/12/15 16:32:44;;;;;;;;;;;;;;;;;;5095505;28;20321;-82
2021/12/15 16:35:10;;;;;;;;;;;;;;;;;;5095459;28;19953;-76
2021/12/15 16:37:36;;;;;;;;;;;;;;;;;;5095478;28;19908;-73
2021/12/15 16:40:02;;;;;;;;;;;;;;;;;;5095106;28;20486;-70
2021/12/15 16:42:30;;;;;;;;;;;;;;;;;;5094846;28;20527;-73
2021/12/15 16:44:56;;;;;;;;;;;;;;;;;;5094932;28;20040;-73
2021/12/15 16:47:22;;;;;;;;;;;;;;;;;;5094997;28;19908;-75
2021/12/15 16:49:48;;;;;;;;;;;;;;;;;;5094939;28;19908;-80
2021/12/15 16:52:14;;;;;;;;;;;;;;;;;;5080940;28;19912;-83
2021/12/15 16:54:41;;;;;;;;;;;;;;;;;;5072741;28;19953;-79
2021/12/15 16:57:07;;;;;;;;;;;;;;;;;;5074379;28;20497;-80
2021/12/15 16:59:32;;;;;;;;;;;;;;;;;;5073975;28;19908;-77
2021/12/15 17:01:59;;;;;;;;;;;;;;;;;;5092005;28;19973;-79
2021/12/15 17:04:25;;;;;;;;;;;;;;;;;;5094290;28;19923;-80
2021/12/15 17:06:51;;;;;;;;;;;;;;;;;;5094466;28;19908;-79
2021/12/15 17:09:17;;;;;;;;;;;;;;;;;;5094270;28;19904;-79
2021/12/15 17:11:42;;;;;;;;;;;;;;;;;;5092787;28;19912;-79
2021/12/15 17:14:11;;;;;;;;;;;;;;;;;;5094318;28;19977;-81
2021/12/15 17:16:37;;;;;;;;;;;;;;;;;;5094636;28;19908;-78
2021/12/15 17:19:03;;;;;;;;;;;;;;;;;;5092600;28;19914;-80
2021/12/15 17:21:30;;;;;;;;;;;;;;;;;;5094155;28;19924;-79
2021/12/15 17:23:56;;;;;;;;;;;;;;;;;;5094084;28;20032;-80
2021/12/15 17:26:22;;;;;;;;;;;;;;;;;;5093976;28;19918;-77
2021/12/15 17:28:48;;;;;;;;;;;;;;;;;;5094044;28;19997;-77
2021/12/15 17:31:14;;;;;;;;;;;;;;;;;;5093708;28;19947;-78
2021/12/15 17:33:40;;;;;;;;;;;;;;;;;;5094341;28;19970;-79
2021/12/15 17:36:05;;;;;;;;;;;;;;;;;;5094006;28;20212;-78
2021/12/15 17:38:31;;;;;;;;;;;;;;;;;;5093718;28;20371;-78
2021/12/15 17:40:57;;;;;;;;;;;;;;;;;;5093968;28;19919;-76
2021/12/15 17:43:23;;;;;;;;;;;;;;;;;;5093836;28;19916;-80
2021/12/15 17:45:49;;;;;;;;;;;;;;;;;;5087784;28;19915;-79
2021/12/15 17:48:15;;;;;;;;;;;;;;;;;;5073443;28;19908;-78
2021/12/15 17:50:41;;;;;;;;;;;;;;;;;;5073569;28;19940;-70
2021/12/15 17:53:09;;;;;;;;;;;;;;;;;;5072866;28;19959;-78
2021/12/15 17:55:34;;;;;;;;;;;;;;;;;;5071802;28;20344;-79
2021/12/15 17:58:01;;;;;;;;;;;;;;;;;;5071958;28;19909;-78
2021/12/15 18:00:27;;;;;;;;;;;;;;;;;;5073234;28;19908;-80
2021/12/15 18:02:53;;;;;;;;;;;;;;;;;;5073016;28;20290;-80
2021/12/15 18:05:19;;;;;;;;;;;;;;;;;;5072989;28;20363;-78
2021/12/15 18:07:45;;;;;;;;;;;;;;;;;;5072622;28;19909;-72